Time;durP1;ratioP1;P1;durP2;ratioP2;P2;SDS_P1;SDS_P2;PMS_P1;PMS_P2;Temp;Humidity;BMP_temperature;BMP_pressure;BME280_temperature;BME280_humidity;BME280_pressure;Samples;Min_cycle;Max_cycle;Signal;HPM_P1;HPM_P2
2023/07/31 00:00:23;;;;;;;10.25;6.60;;;;;;;-142.57;75.50;115900.28;5054270;28;20227;-86
2023/07/31 00:02:48;;;;;;;12.68;7.30;;;;;;;-142.57;75.46;115900.28;5054182;28;20025;-85
2023/07/31 00:05:14;;;;;;;13.02;7.55;;;;;;;-142.57;78.08;115900.28;5051642;28;20116;-86
2023/07/31 00:07:39;;;;;;;11.88;8.63;;;;;;;-142.57;78.53;115900.28;5070862;28;20393;-85
2023/07/31 00:10:05;;;;;;;11.38;8.40;;;;;;;-142.57;78.44;115900.28;5072806;28;20029;-84
2023/07/31 00:12:30;;;;;;;10.85;7.68;;;;;;;-142.57;79.37;115900.28;5076411;28;20496;-85
2023/07/31 00:14:56;;;;;;;11.60;8.25;;;;;;;-142.57;79.51;115900.28;5077369;28;20052;-86
2023/07/31 00:17:21;;;;;;;11.00;7.60;;;;;;;-142.57;80.79;115900.28;5078133;28;20040;-84
2023/07/31 00:19:49;;;;;;;19.63;8.18;;;;;;;-142.57;81.86;115900.28;5078401;28;20055;-86
2023/07/31 00:22:14;;;;;;;16.65;9.07;;;;;;;-142.57;85.09;115900.28;5078059;28;20066;-86
2023/07/31 00:24:40;;;;;;;13.88;9.68;;;;;;;-142.57;85.38;115900.28;5078180;28;20032;-85
2023/07/31 00:27:05;;;;;;;13.50;9.27;;;;;;;-142.57;85.99;115900.28;5077882;28;20021;-84
2023/07/31 00:29:31;;;;;;;15.57;9.50;;;;;;;-142.57;89.66;115900.28;5078096;28;20508;-88
2023/07/31 00:31:56;;;;;;;16.73;8.93;;;;;;;-142.57;91.59;115900.28;5078000;28;20161;-87
2023/07/31 00:34:22;;;;;;;23.60;8.40;;;;;;;-142.57;92.22;115900.28;5077891;28;20482;-88
2023/07/31 00:36:47;;;;;;;18.00;8.63;;;;;;;-142.57;93.77;115900.28;5077875;28;20033;-87
2023/07/31 00:39:15;;;;;;;15.10;8.77;;;;;;;-142.57;95.55;115900.28;5059972;28;20089;-87
2023/07/31 00:41:41;;;;;;;13.70;7.55;;;;;;;-142.57;96.88;115900.28;5077435;28;20115;-86
2023/07/31 00:44:06;;;;;;;11.65;7.95;;;;;;;-142.57;98.83;115900.28;5059945;28;20548;-89
2023/07/31 00:46:36;;;;;;;14.40;9.05;;;;;;;-142.57;99.97;115900.28;5078735;28;20489;-88
2023/07/31 00:49:02;;;;;;;12.32;8.30;;;;;;;-142.57;100.00;115900.28;5060878;28;20515;-91
2023/07/31 00:51:28;;;;;;;14.68;8.30;;;;;;;-142.57;100.00;115900.28;5060456;28;20038;-86
2023/07/31 00:53:56;;;;;;;11.20;8.52;;;;;;;-142.57;100.00;115900.28;5077631;28;20123;-85
2023/07/31 00:56:25;;;;;;;14.88;9.10;;;;;;;-142.57;100.00;115900.28;5062661;28;20039;-87
2023/07/31 00:58:51;;;;;;;13.90;8.38;;;;;;;-142.57;100.00;115900.28;5063147;28;20036;-87
2023/07/31 01:01:16;;;;;;;12.27;8.80;;;;;;;-142.57;100.00;115900.28;5060645;28;20043;-87
2023/07/31 01:03:44;;;;;;;16.42;8.35;;;;;;;-142.57;100.00;115900.28;5077506;28;20028;-89
2023/07/31 01:06:17;;;;;;;14.05;8.73;;;;;;;-142.57;100.00;115900.28;5060040;28;20381;-88
2023/07/31 01:09:16;;;;;;;18.58;9.63;;;;;;;-142.57;100.00;115900.28;5077884;28;20080;-87
2023/07/31 01:11:48;;;;;;;14.68;9.85;;;;;;;-142.57;100.00;115900.28;4996317;28;20443;-89
2023/07/31 01:14:14;;;;;;;10.63;7.78;;;;;;;-142.57;100.00;115900.28;4996933;28;20046;-90
2023/07/31 01:16:39;;;;;;;14.85;8.68;;;;;;;-142.57;100.00;115900.28;4980338;28;20540;-90
2023/07/31 01:19:08;;;;;;;14.57;8.20;;;;;;;-142.57;100.00;115900.28;4980789;28;20536;-90
2023/07/31 01:21:40;;;;;;;15.02;9.93;;;;;;;-142.57;100.00;115900.28;4998453;28;20045;-88
2023/07/31 01:24:35;;;;;;;13.50;8.73;;;;;;;-142.57;100.00;115900.28;5058746;28;20047;-89
2023/07/31 01:27:14;;;;;;;14.02;9.48;;;;;;;-142.57;100.00;115900.28;5077921;28;20457;-88
2023/07/31 01:29:52;;;;;;;16.60;9.77;;;;;;;-142.57;100.00;115900.28;5060083;28;20435;-88
2023/07/31 01:32:19;;;;;;;13.60;9.05;;;;;;;-142.57;100.00;115900.28;5078297;28;20105;-89
2023/07/31 01:34:47;;;;;;;15.43;8.52;;;;;;;-142.57;100.00;115900.28;5077804;28;20111;-90
2023/07/31 01:37:15;;;;;;;12.77;8.18;;;;;;;-142.57;100.00;115900.28;5077904;28;20041;-88
2023/07/31 01:39:40;;;;;;;13.90;8.35;;;;;;;-142.57;100.00;115900.28;5076547;28;20032;-90
2023/07/31 01:42:07;;;;;;;10.77;6.43;;;;;;;-142.57;100.00;115900.28;5075733;28;20021;-86
2023/07/31 01:44:32;;;;;;;10.50;5.80;;;;;;;-142.57;100.00;115900.28;5075825;28;20032;-89
2023/07/31 01:47:00;;;;;;;9.90;6.43;;;;;;;-142.57;100.00;115900.28;5057814;28;20037;-89
2023/07/31 01:49:25;;;;;;;11.52;6.50;;;;;;;-142.57;100.00;115900.28;5076104;28;20492;-90
2023/07/31 01:51:51;;;;;;;8.48;5.95;;;;;;;-142.57;100.00;115900.28;5057584;28;20119;-88
2023/07/31 01:54:16;;;;;;;9.63;5.95;;;;;;;-142.57;100.00;115900.28;5057641;28;20025;-89
2023/07/31 01:56:42;;;;;;;11.95;5.80;;;;;;;-142.57;100.00;115900.28;5078711;28;20040;-83
2023/07/31 01:59:07;;;;;;;14.23;6.68;;;;;;;-142.57;100.00;115900.28;5099031;28;20045;-84
2023/07/31 02:01:33;;;;;;;8.82;5.18;;;;;;;-142.57;100.00;115900.28;5071513;28;20033;-90
2023/07/31 02:03:59;;;;;;;10.27;5.80;;;;;;;-142.57;100.00;115900.28;5057684;28;20481;-87
2023/07/31 02:06:25;;;;;;;11.10;5.57;;;;;;;-142.57;100.00;115900.28;5075648;28;20037;-86
2023/07/31 02:08:50;;;;;;;9.68;5.82;;;;;;;-142.57;100.00;115900.28;5075522;28;20384;-86
2023/07/31 02:11:16;;;;;;;12.02;5.90;;;;;;;-142.57;100.00;115900.28;5075356;28;20086;-87
2023/07/31 02:13:42;;;;;;;11.80;6.45;;;;;;;-142.57;100.00;115900.28;5057297;28;20028;-88
2023/07/31 02:16:07;;;;;;;10.20;6.03;;;;;;;-142.57;100.00;115900.28;5075232;28;20488;-86
2023/07/31 02:18:32;;;;;;;13.80;5.82;;;;;;;-142.57;100.00;115900.28;5075106;28;20039;-88
2023/07/31 02:21:01;;;;;;;10.02;5.93;;;;;;;-142.57;100.00;115900.28;5056953;28;20043;-87
2023/07/31 02:23:29;;;;;;;14.85;5.78;;;;;;;-142.57;100.00;115900.28;5075315;28;20029;-85
2023/07/31 02:25:54;;;;;;;13.60;5.95;;;;;;;-142.57;100.00;115900.28;5075690;28;20033;-87
2023/07/31 02:28:20;;;;;;;10.57;5.60;;;;;;;-142.57;100.00;115900.28;5076066;28;20127;-88
2023/07/31 02:30:48;;;;;;;18.77;6.50;;;;;;;-142.57;100.00;115900.28;5075445;28;20040;-90
2023/07/31 02:33:15;;;;;;;11.38;5.30;;;;;;;-142.57;100.00;115900.28;5074927;28;20037;-89
2023/07/31 02:35:41;;;;;;;11.20;4.82;;;;;;;-142.57;100.00;115900.28;5073753;28;20024;-88
2023/07/31 02:38:06;;;;;;;8.00;4.93;;;;;;;-142.57;100.00;115900.28;5074706;28;20039;-87
2023/07/31 02:40:32;;;;;;;8.77;4.65;;;;;;;-142.57;100.00;115900.28;5074894;28;20051;-89
2023/07/31 02:42:58;;;;;;;9.75;4.80;;;;;;;-142.57;99.94;115900.28;5075299;28;20028;-88
2023/07/31 02:45:23;;;;;;;9.38;4.93;;;;;;;-142.57;100.00;115900.28;5057018;28;20039;-89
2023/07/31 02:47:49;;;;;;;6.20;4.45;;;;;;;-142.57;99.82;115900.28;5074859;28;20355;-87
2023/07/31 02:50:14;;;;;;;9.02;4.93;;;;;;;-142.57;99.70;115900.28;5073747;28;20044;-89
2023/07/31 02:52:40;;;;;;;10.40;4.72;;;;;;;-142.57;99.63;115900.28;5056396;28;20032;-89
2023/07/31 02:55:06;;;;;;;9.57;5.13;;;;;;;-142.57;98.75;115900.28;5057132;28;20024;-91
2023/07/31 02:57:34;;;;;;;8.23;4.60;;;;;;;-142.57;99.51;115900.28;5075042;28;20685;-88
2023/07/31 03:00:00;;;;;;;10.93;4.70;;;;;;;-142.57;98.25;115900.28;5074749;28;20036;-89
2023/07/31 03:02:25;;;;;;;9.65;4.90;;;;;;;-142.57;97.55;115900.28;5056309;28;20123;-91
2023/07/31 03:04:51;;;;;;;6.47;4.57;;;;;;;-142.57;98.29;115900.28;5056822;28;20028;-88
2023/07/31 03:07:16;;;;;;;10.52;5.03;;;;;;;-142.57;100.00;115900.28;5073556;28;20086;-87
2023/07/31 03:09:42;;;;;;;8.75;4.85;;;;;;;-142.57;100.00;115900.28;5074242;28;20052;-88
2023/07/31 03:12:08;;;;;;;10.30;5.13;;;;;;;-142.57;100.00;115900.28;5074453;28;20068;-90
2023/07/31 03:14:34;;;;;;;9.68;5.10;;;;;;;-142.57;100.00;115900.28;5074214;28;20089;-89
2023/07/31 03:16:59;;;;;;;13.02;5.50;;;;;;;-142.57;100.00;115900.28;5073757;28;20108;-88
2023/07/31 03:19:25;;;;;;;11.02;5.75;;;;;;;-142.57;100.00;115900.28;5075073;28;20036;-88
2023/07/31 03:21:50;;;;;;;15.27;7.47;;;;;;;-142.57;100.00;115900.28;5074059;28;20028;-89
2023/07/31 03:24:19;;;;;;;11.85;8.73;;;;;;;-142.57;100.00;115900.28;5055723;28;20404;-87
2023/07/31 03:26:44;;;;;;;11.10;8.52;;;;;;;-142.57;100.00;115900.28;5074313;28;20043;-87
2023/07/31 03:29:10;;;;;;;20.52;10.18;;;;;;;-142.57;100.00;115900.28;5055689;28;20023;-86
2023/07/31 03:31:35;;;;;;;13.90;9.13;;;;;;;-142.57;100.00;115900.28;5073509;28;20142;-87
2023/07/31 03:34:01;;;;;;;17.30;10.07;;;;;;;-142.57;100.00;115900.28;5073199;28;20036;-90
2023/07/31 03:36:26;;;;;;;19.85;10.18;;;;;;;-142.57;100.00;115900.28;5073609;28;20465;-84
2023/07/31 03:38:52;;;;;;;13.55;10.00;;;;;;;-142.57;100.00;115900.28;5055921;28;20028;-85
2023/07/31 03:41:18;;;;;;;14.40;10.60;;;;;;;-142.57;100.00;115900.28;5074109;28;20037;-87
2023/07/31 03:43:46;;;;;;;18.60;10.77;;;;;;;-142.57;100.00;115900.28;5073746;28;20477;-85
2023/07/31 03:46:12;;;;;;;17.67;10.23;;;;;;;-142.57;100.00;115900.28;5073882;28;20071;-86
2023/07/31 03:48:37;;;;;;;16.40;10.25;;;;;;;-142.57;100.00;115900.28;5074218;28;20085;-88
2023/07/31 03:51:03;;;;;;;13.35;9.65;;;;;;;-142.57;100.00;115900.28;5074492;28;20115;-84
2023/07/31 03:53:28;;;;;;;14.85;10.43;;;;;;;-142.57;100.00;115900.28;5055369;28;20401;-87
2023/07/31 03:55:54;;;;;;;12.93;9.32;;;;;;;-142.57;100.00;115900.28;5072737;28;20036;-87
2023/07/31 03:58:19;;;;;;;11.65;8.75;;;;;;;-142.57;100.00;115900.28;5072812;28;20032;-88
2023/07/31 04:00:45;;;;;;;12.98;8.43;;;;;;;-142.57;100.00;115900.28;5072975;28;20035;-85
2023/07/31 04:03:10;;;;;;;12.63;7.78;;;;;;;-142.57;100.00;115900.28;5073871;28;20036;-86
2023/07/31 04:05:38;;;;;;;11.43;8.25;;;;;;;-142.57;100.00;115900.28;5075961;28;20088;-86
2023/07/31 04:08:04;;;;;;;12.15;8.70;;;;;;;-142.57;100.00;115900.28;5083483;28;20036;-83
2023/07/31 04:10:31;;;;;;;10.93;6.68;;;;;;;-142.57;100.00;115900.28;5082068;28;20039;-82
2023/07/31 04:12:56;;;;;;;8.80;6.45;;;;;;;-142.57;100.00;115900.28;5080793;28;20040;-81
2023/07/31 04:15:22;;;;;;;14.27;6.38;;;;;;;-142.57;100.00;115900.28;5083543;28;20025;-83
2023/07/31 04:17:47;;;;;;;11.80;6.47;;;;;;;-142.57;100.00;115900.28;5062667;28;20037;-83
2023/07/31 04:20:13;;;;;;;13.55;6.70;;;;;;;-142.57;100.00;115900.28;5078021;28;20040;-86
2023/07/31 04:22:38;;;;;;;9.23;6.50;;;;;;;-142.57;100.00;115900.28;5080574;28;20056;-84
2023/07/31 04:25:07;;;;;;;9.43;6.78;;;;;;;-142.57;100.00;115900.28;5078647;28;20471;-84
2023/07/31 04:27:32;;;;;;;10.25;6.88;;;;;;;-142.57;100.00;115900.28;5073770;28;20139;-88
2023/07/31 04:29:58;;;;;;;13.65;6.72;;;;;;;-142.57;100.00;115900.28;5074282;28;20622;-90
2023/07/31 04:32:46;;;;;;;17.52;6.95;;;;;;;-142.57;100.00;115900.28;5080961;28;20171;-91
2023/07/31 04:35:12;;;;;;;11.45;6.53;;;;;;;-142.57;100.00;115900.28;5080162;28;20470;-90
2023/07/31 04:37:38;;;;;;;14.85;7.30;;;;;;;-142.57;100.00;115900.28;5084208;28;20035;-89
2023/07/31 04:40:05;;;;;;;10.55;6.63;;;;;;;-142.57;100.00;115900.28;5062457;28;20180;-86
2023/07/31 04:42:31;;;;;;;12.10;6.57;;;;;;;-142.57;100.00;115900.28;5080317;28;20040;-89
2023/07/31 04:44:56;;;;;;;13.00;6.88;;;;;;;-142.57;100.00;115900.28;5061385;28;20025;-86
2023/07/31 04:47:22;;;;;;;9.77;6.70;;;;;;;-142.57;100.00;115900.28;5079970;28;20039;-87
2023/07/31 04:49:47;;;;;;;12.02;6.97;;;;;;;-142.57;100.00;115900.28;5062207;28;20092;-86
2023/07/31 04:52:13;;;;;;;16.60;7.30;;;;;;;-142.57;100.00;115900.28;5078497;28;20142;-88
2023/07/31 04:54:38;;;;;;;13.77;6.68;;;;;;;-142.57;100.00;115900.28;5079226;28;20032;-87
2023/07/31 04:57:04;;;;;;;12.57;6.90;;;;;;;-142.57;100.00;115900.28;5069207;28;20028;-84
2023/07/31 04:59:29;;;;;;;11.15;6.53;;;;;;;-142.57;100.00;115900.28;5059855;28;20032;-88
2023/07/31 05:01:55;;;;;;;15.30;6.93;;;;;;;-142.57;100.00;115900.28;5040377;28;20049;-88
2023/07/31 05:04:20;;;;;;;9.75;6.70;;;;;;;-142.57;100.00;115900.28;5064136;28;20122;-88
2023/07/31 05:06:46;;;;;;;12.05;7.15;;;;;;;-142.57;100.00;115900.28;5066545;28;20047;-90
2023/07/31 05:09:12;;;;;;;9.25;6.80;;;;;;;-142.57;100.00;115900.28;5028758;28;20041;-87
2023/07/31 05:11:37;;;;;;;14.57;6.97;;;;;;;-142.57;100.00;115900.28;5061558;28;20037;-88
2023/07/31 05:14:03;;;;;;;9.63;6.80;;;;;;;-142.57;100.00;115900.28;5061097;28;20036;-83
2023/07/31 05:16:28;;;;;;;10.38;6.20;;;;;;;-142.57;100.00;115900.28;5064309;28;20024;-88
2023/07/31 05:22:47;;;;;;;12.20;6.88;;;;;;;-142.57;100.00;115900.28;5082967;22;20425;-90
2023/07/31 05:25:16;;;;;;;15.88;6.63;;;;;;;-142.57;100.00;115900.28;5066316;28;20099;-85
2023/07/31 05:27:44;;;;;;;18.10;7.10;;;;;;;-142.57;100.00;115900.28;5082436;28;20093;-85
2023/07/31 05:30:16;;;;;;;20.27;6.90;;;;;;;-142.57;100.00;115900.28;5061639;28;20041;-89
2023/07/31 05:32:41;;;;;;;10.98;7.10;;;;;;;-142.57;100.00;115900.28;5062133;28;20040;-87
2023/07/31 05:35:07;;;;;;;9.25;6.32;;;;;;;-142.57;100.00;115900.28;5076429;28;20047;-87
2023/07/31 05:37:33;;;;;;;13.95;6.82;;;;;;;-142.57;100.00;115900.28;5043123;28;20044;-86
2023/07/31 05:39:58;;;;;;;18.23;7.25;;;;;;;-142.57;100.00;115900.28;5079548;28;20032;-88
2023/07/31 05:42:24;;;;;;;12.95;7.00;;;;;;;-142.57;100.00;115900.28;5077881;28;20025;-88
2023/07/31 05:44:51;;;;;;;17.98;7.07;;;;;;;-142.57;100.00;115900.28;5077166;28;20480;-88
2023/07/31 05:47:17;;;;;;;16.90;6.63;;;;;;;-142.57;100.00;115900.28;5081916;28;20024;-88
2023/07/31 05:49:42;;;;;;;18.55;6.97;;;;;;;-142.57;100.00;115900.28;5063361;28;20452;-89
2023/07/31 05:52:08;;;;;;;23.10;7.35;;;;;;;-142.57;100.00;115900.28;5088083;28;20116;-90
2023/07/31 05:54:34;;;;;;;16.58;6.40;;;;;;;-142.57;100.00;115900.28;5089345;28;20033;-90
2023/07/31 05:57:00;;;;;;;12.50;6.32;;;;;;;-142.57;100.00;115900.28;5056373;28;20481;-89
2023/07/31 05:59:25;;;;;;;13.27;6.25;;;;;;;-142.57;100.00;115900.28;5090501;28;20033;-90
2023/07/31 06:01:51;;;;;;;13.57;6.60;;;;;;;-142.57;100.00;115900.28;5073662;28;20044;-89
2023/07/31 06:04:16;;;;;;;9.45;6.80;;;;;;;-142.57;100.00;115900.28;5077016;28;20124;-89
2023/07/31 06:06:42;;;;;;;10.27;6.32;;;;;;;-142.57;100.00;115900.28;5072141;28;20029;-92
2023/07/31 06:09:14;;;;;;;15.15;7.60;;;;;;;-142.57;100.00;115900.28;5075418;28;20029;-90
2023/07/31 06:11:43;;;;;;;13.85;7.70;;;;;;;-142.57;100.00;115900.28;5069191;28;20036;-91
2023/07/31 06:14:08;;;;;;;12.25;7.03;;;;;;;-142.57;100.00;115900.28;5054292;28;20454;-89
2023/07/31 06:16:51;;;;;;;11.90;7.05;;;;;;;-142.57;99.01;115900.28;5071677;28;20060;-91
2023/07/31 06:19:16;;;;;;;;;;;;;;;-142.57;100.00;115900.28;5061394;28;20065;-90
2023/07/31 06:21:43;;;;;;;12.35;7.10;;;;;;;-142.57;100.00;115900.28;5038825;28;19920;-85
2023/07/31 06:24:09;;;;;;;11.85;7.57;;;;;;;-142.57;100.00;115900.28;5041234;28;20037;-89
2023/07/31 06:26:35;;;;;;;11.30;7.00;;;;;;;-142.57;100.00;115900.28;5042557;28;20033;-91
2023/07/31 06:29:10;;;;;;;14.90;7.63;;;;;;;-142.57;97.73;115900.28;5047808;28;20057;-90
2023/07/31 06:31:37;;;;;;;13.55;7.75;;;;;;;-142.57;100.00;115900.28;5045788;28;20041;-86
2023/07/31 06:34:03;;;;;;;15.80;8.63;;;;;;;-142.57;100.00;115900.28;5036947;28;20070;-87
2023/07/31 06:36:28;;;;;;;12.38;8.30;;;;;;;-142.57;98.56;115900.28;5038790;28;20087;-86
2023/07/31 06:38:54;;;;;;;17.23;8.35;;;;;;;-142.57;98.44;115900.28;5040410;28;20038;-86
2023/07/31 06:41:19;;;;;;;18.95;8.60;;;;;;;-142.57;99.75;115900.28;5039302;28;20428;-90
2023/07/31 06:43:45;;;;;;;13.45;8.38;;;;;;;-142.57;99.76;115900.28;5042788;28;20033;-92
2023/07/31 06:46:11;;;;;;;15.93;9.25;;;;;;;-142.57;99.79;115900.28;5042107;28;20041;-88
2023/07/31 06:48:37;;;;;;;14.95;9.20;;;;;;;-142.57;97.98;115900.28;5039705;28;20087;-92
2023/07/31 06:51:03;;;;;;;19.30;9.35;;;;;;;-142.57;95.16;115900.28;5023336;28;20087;-91
2023/07/31 06:53:29;;;;;;;14.63;9.43;;;;;;;-142.57;95.78;115900.28;5025434;28;20064;-92
2023/07/31 06:56:18;;;;;;;16.63;10.15;;;;;;;-142.57;95.62;115900.28;5026315;28;20041;-90
2023/07/31 06:58:48;;;;;;;17.73;11.23;;;;;;;-142.57;91.96;115900.28;4953041;29;20039;-85
2023/07/31 07:01:14;;;;;;;25.92;10.75;;;;;;;-142.57;93.12;115900.28;4973609;28;20626;-83
2023/07/31 07:03:52;;;;;;;14.63;9.57;;;;;;;-142.57;88.75;115900.28;4973693;28;20038;-84
2023/07/31 07:09:13;;;;;;;12.25;8.40;;;;;;;-142.57;89.12;115900.28;4423629;26;20037;-87
2023/07/31 07:12:00;;;;;;;12.82;8.07;;;;;;;-142.57;87.18;115900.28;5066359;28;20037;-86
2023/07/31 07:14:35;;;;;;;20.20;8.10;;;;;;;-142.57;82.70;115900.28;5053253;28;20063;-84
2023/07/31 07:17:49;;;;;;;10.40;8.02;;;;;;;-142.57;78.51;115900.28;5065689;28;20093;-86
2023/07/31 07:20:39;;;;;;;12.32;8.98;;;;;;;-142.57;79.99;115900.28;5081116;23;20104;-88
2023/07/31 07:23:20;;;;;;;16.15;10.15;;;;;;;-142.57;82.11;115900.28;5072981;28;20064;-85
2023/07/31 07:26:23;;;;;;;12.50;9.45;;;;;;;-142.57;88.20;115900.28;5088082;28;20047;-85
2023/07/31 07:29:01;;;;;;;13.25;9.10;;;;;;;-142.57;89.05;115900.28;5072152;28;20025;-86
2023/07/31 07:31:38;;;;;;;17.45;11.00;;;;;;;-142.57;89.49;115900.28;5077591;28;20059;-85
2023/07/31 07:34:18;;;;;;;20.58;9.23;;;;;;;-142.57;91.20;115900.28;5072183;28;20099;-84
2023/07/31 07:36:47;;;;;;;17.48;9.98;;;;;;;-142.57;90.55;115900.28;5089574;28;20029;-86
2023/07/31 07:39:18;;;;;;;14.88;10.63;;;;;;;-142.57;92.32;115900.28;5090339;28;20020;-86
2023/07/31 07:41:50;;;;;;;;;;;;;;;-142.57;92.99;115900.28;5089264;28;20064;-84
2023/07/31 07:44:16;;;;;;;17.70;10.50;;;;;;;-142.57;96.96;115900.28;5064990;28;19916;-85
2023/07/31 07:46:44;;;;;;;18.40;9.40;;;;;;;-142.57;99.51;115900.28;5086494;28;20427;-86
2023/07/31 07:49:09;;;;;;;10.40;7.30;;;;;;;-142.57;94.69;115900.28;5086524;28;20036;-85
2023/07/31 07:51:38;;;;;;;13.30;6.70;;;;;;;-142.57;93.90;115900.28;5082559;28;20036;-88
2023/07/31 07:54:04;;;;;;;13.75;6.82;;;;;;;-142.57;89.74;115900.28;5072163;28;20028;-87
2023/07/31 07:56:30;;;;;;;11.32;6.90;;;;;;;-142.57;88.33;115900.28;5063616;28;20048;-86
2023/07/31 07:58:56;;;;;;;13.43;7.43;;;;;;;-142.57;85.79;115900.28;5066555;28;20040;-89
2023/07/31 08:01:21;;;;;;;11.27;6.82;;;;;;;-142.57;86.24;115900.28;5083651;28;20036;-86
2023/07/31 08:03:51;;;;;;;8.23;5.35;;;;;;;-142.57;82.27;115900.28;5057480;28;21157;-87
2023/07/31 08:06:19;;;;;;;9.98;5.25;;;;;;;-142.57;83.51;115900.28;5036897;28;20087;-85
2023/07/31 08:08:45;;;;;;;10.07;5.70;;;;;;;-142.57;83.79;115900.28;5057926;28;20033;-86
2023/07/31 08:11:10;;;;;;;9.35;5.10;;;;;;;-142.57;80.10;115900.28;5056170;28;20036;-86
2023/07/31 08:13:39;;;;;;;6.65;4.57;;;;;;;-142.57;76.96;115900.28;5074257;28;20036;-84
2023/07/31 08:16:04;;;;;;;8.93;4.57;;;;;;;-142.57;72.91;115900.28;5074637;28;20115;-87
2023/07/31 08:18:33;;;;;;;8.95;4.72;;;;;;;-142.57;71.51;115900.28;5043704;28;20476;-84
2023/07/31 08:20:59;;;;;;;6.53;4.40;;;;;;;-142.57;72.10;115900.28;5071862;28;20170;-83
2023/07/31 08:23:24;;;;;;;12.00;5.13;;;;;;;-142.57;74.80;115900.28;5074093;28;20492;-84
2023/07/31 08:25:50;;;;;;;10.20;5.80;;;;;;;-142.57;75.89;115900.28;5074090;28;20531;-85
2023/07/31 08:28:16;;;;;;;9.18;5.55;;;;;;;-142.57;72.91;115900.28;5056159;28;20036;-85
2023/07/31 08:30:42;;;;;;;11.88;6.18;;;;;;;-142.57;74.05;115900.28;5074433;28;20041;-86
2023/07/31 08:33:08;;;;;;;13.70;6.22;;;;;;;-142.57;72.67;115900.28;5057565;28;20074;-84
2023/07/31 08:35:33;;;;;;;10.98;6.25;;;;;;;-142.57;74.12;115900.28;5079230;28;20024;-83
2023/07/31 08:37:59;;;;;;;8.68;5.88;;;;;;;-142.57;71.35;115900.28;5080609;28;20056;-84
2023/07/31 08:40:25;;;;;;;9.30;5.00;;;;;;;-142.57;67.48;115900.28;5063038;28;20063;-85
2023/07/31 08:42:54;;;;;;;10.82;5.85;;;;;;;-142.57;69.30;115900.28;5061270;28;20123;-85
2023/07/31 08:45:20;;;;;;;13.85;6.55;;;;;;;-142.57;70.85;115900.28;5077439;28;20028;-85
2023/07/31 08:47:48;;;;;;;11.52;5.57;;;;;;;-142.57;67.57;115900.28;5076982;28;20112;-85
2023/07/31 08:50:17;;;;;;;10.95;6.18;;;;;;;-142.57;66.13;115900.28;5043439;28;20374;-86
2023/07/31 08:52:42;;;;;;;9.38;5.25;;;;;;;-142.57;67.93;115900.28;5066207;28;20044;-86
2023/07/31 08:55:09;;;;;;;9.52;6.18;;;;;;;-142.57;69.22;115900.28;5076582;28;20044;-83
2023/07/31 08:57:36;;;;;;;11.93;6.65;;;;;;;-142.57;65.00;115900.28;5076617;28;20437;-82
2023/07/31 09:00:06;;;;;;;9.38;5.70;;;;;;;-142.57;65.14;115900.28;5076026;28;20078;-84
2023/07/31 09:02:45;;;;;;;12.98;6.60;;;;;;;-142.57;66.99;115900.28;5076328;28;20511;-81
2023/07/31 09:05:10;;;;;;;9.85;6.75;;;;;;;-142.57;65.70;115900.28;5075982;28;20114;-81
2023/07/31 09:07:37;;;;;;;10.40;6.85;;;;;;;-142.57;63.54;115900.28;5076104;28;20107;-83
2023/07/31 09:10:04;;;;;;;10.68;7.35;;;;;;;-142.57;64.96;115900.28;5076194;28;20025;-84
2023/07/31 09:12:30;;;;;;;10.27;6.47;;;;;;;-142.57;64.44;115900.28;5076031;28;20330;-85
2023/07/31 09:14:57;;;;;;;9.38;5.95;;;;;;;-142.57;64.41;115900.28;5075809;28;20154;-86
2023/07/31 09:17:30;;;;;;;14.23;6.45;;;;;;;-142.57;62.70;115900.28;5076658;28;20071;-85
2023/07/31 09:19:58;;;;;;;12.40;6.53;;;;;;;-142.57;64.00;115900.28;5090098;28;20066;-85
2023/07/31 09:22:35;;;;;;;10.05;6.70;;;;;;;-142.57;64.62;115900.28;5080030;28;20567;-87
2023/07/31 09:25:21;;;;;;;11.75;6.22;;;;;;;-142.57;61.77;115900.28;5076551;28;20036;-85
2023/07/31 09:27:50;;;;;;;9.30;6.13;;;;;;;-142.57;63.30;115900.28;5075935;28;20485;-84
2023/07/31 09:30:17;;;;;;;8.52;6.22;;;;;;;-142.57;62.33;115900.28;5075834;28;20477;-87
2023/07/31 09:32:45;;;;;;;9.07;5.72;;;;;;;-142.57;61.22;115900.28;5075643;28;20059;-87
2023/07/31 09:35:20;;;;;;;10.00;7.25;;;;;;;-142.57;60.96;115900.28;5075422;28;20024;-84
2023/07/31 09:37:53;;;;;;;9.38;6.90;;;;;;;-142.57;60.84;115900.28;5070570;28;20047;-83
2023/07/31 09:40:29;;;;;;;9.75;6.47;;;;;;;-142.57;59.13;115900.28;5076125;28;20036;-85
2023/07/31 09:43:00;;;;;;;7.20;5.80;;;;;;;-142.57;58.86;115900.28;5076591;28;20032;-84
2023/07/31 09:45:26;;;;;;;8.55;5.38;;;;;;;-142.57;60.97;115900.28;5080132;28;20032;-87
2023/07/31 09:47:52;;;;;;;6.20;4.28;;;;;;;-142.57;57.70;115900.28;5088372;28;20035;-85
2023/07/31 09:50:19;;;;;;;9.80;5.03;;;;;;;-142.57;57.98;115900.28;5075171;28;20020;-84
2023/07/31 09:52:45;;;;;;;11.90;5.28;;;;;;;-142.57;58.90;115900.28;5074383;28;20087;-85
2023/07/31 09:55:10;;;;;;;7.93;5.50;;;;;;;-142.57;59.74;115900.28;5075567;28;20477;-86
2023/07/31 09:57:47;;;;;;;10.02;5.30;;;;;;;-142.57;59.86;115900.28;5075635;28;20150;-85
2023/07/31 10:00:15;;;;;;;8.43;4.50;;;;;;;-142.57;58.85;115900.28;5057710;28;20485;-87
2023/07/31 10:02:41;;;;;;;7.15;4.55;;;;;;;-142.57;57.37;115900.28;5050120;28;20028;-86
2023/07/31 10:05:07;;;;;;;6.72;3.47;;;;;;;-142.57;56.96;115900.28;5072831;28;20166;-87
2023/07/31 10:07:39;;;;;;;10.05;3.13;;;;;;;-142.57;59.03;115900.28;5072663;28;21118;-88
2023/07/31 10:10:06;;;;;;;8.05;3.80;;;;;;;-142.57;57.95;115900.28;5064716;28;20056;-86
2023/07/31 10:12:34;;;;;;;7.35;3.90;;;;;;;-142.57;56.90;115900.28;5061775;28;20062;-84
2023/07/31 10:15:00;;;;;;;14.52;4.20;;;;;;;-142.57;57.03;115900.28;5085288;28;20024;-83
2023/07/31 10:17:27;;;;;;;5.38;3.30;;;;;;;-142.57;55.95;115900.28;5089294;28;20032;-85
2023/07/31 10:19:57;;;;;;;4.93;2.85;;;;;;;-142.57;56.31;115900.28;5084655;28;20074;-87
2023/07/31 10:22:24;;;;;;;9.90;3.33;;;;;;;-142.57;55.06;115900.28;5082079;28;20024;-90
2023/07/31 10:24:52;;;;;;;8.02;3.30;;;;;;;-142.57;56.02;115900.28;5078154;28;20059;-85
2023/07/31 10:27:17;;;;;;;8.15;3.63;;;;;;;-142.57;57.41;115900.28;5064108;28;20043;-85
2023/07/31 10:29:47;;;;;;;7.43;3.03;;;;;;;-142.57;54.96;115900.28;5074859;28;20072;-84
2023/07/31 10:32:15;;;;;;;6.32;3.90;;;;;;;-142.57;55.11;115900.28;5075821;28;20492;-87
2023/07/31 10:34:41;;;;;;;5.60;3.47;;;;;;;-142.57;55.27;115900.28;5056818;28;20090;-85
2023/07/31 10:37:36;;;;;;;5.13;3.30;;;;;;;-142.57;55.47;115900.28;5087000;28;20048;-84
2023/07/31 10:40:09;;;;;;;6.65;3.35;;;;;;;-142.57;54.31;115900.28;5088747;28;20075;-85
2023/07/31 10:42:45;;;;;;;6.30;2.95;;;;;;;-142.57;55.70;115900.28;5079003;28;20550;-88
2023/07/31 10:45:11;;;;;;;8.05;4.10;;;;;;;-142.57;57.29;115900.28;5070607;28;20036;-86
2023/07/31 10:47:46;;;;;;;6.05;3.50;;;;;;;-142.57;58.08;115900.28;5073965;28;20025;-82
2023/07/31 10:50:23;;;;;;;7.97;3.33;;;;;;;-142.57;55.14;115900.28;5073915;28;20036;-85
2023/07/31 10:52:51;;;;;;;5.88;3.20;;;;;;;-142.57;55.92;115900.28;5073922;28;20044;-84
2023/07/31 10:55:28;;;;;;;5.95;3.20;;;;;;;-142.57;56.55;115900.28;5073404;28;20056;-87
2023/07/31 10:57:55;;;;;;;13.30;3.70;;;;;;;-142.57;55.09;115900.28;5073623;28;20500;-85
2023/07/31 11:00:27;;;;;;;6.25;3.25;;;;;;;-142.57;55.95;115900.28;5073391;28;20449;-84
2023/07/31 11:03:14;;;;;;;7.70;3.47;;;;;;;-142.57;54.57;115900.28;5073529;28;20028;-88
2023/07/31 11:05:48;;;;;;;7.75;3.10;;;;;;;-142.57;54.47;115900.28;5074105;28;20481;-86
2023/07/31 11:08:14;;;;;;;8.35;2.90;;;;;;;-142.57;53.05;115900.28;5075392;28;20047;-85
2023/07/31 11:10:39;;;;;;;6.43;3.00;;;;;;;-142.57;51.97;115900.28;5075363;28;20158;-86